Time;durP1;ratioP1;P1;durP2;ratioP2;P2;SDS_P1;SDS_P2;PMS_P1;PMS_P2;Temp;Humidity;BMP_temperature;BMP_pressure;BME280_temperature;BME280_humidity;BME280_pressure;Samples;Min_cycle;Max_cycle;Signal;HPM_P1;HPM_P2
2023/07/01 00:01:52;;;;;;;8.57;2.73;;;;;;;18.14;50.10;100620.75;5326450;28;20111;-80
2023/07/01 00:04:23;;;;;;;9.47;2.97;;;;;;;18.20;50.85;100612.56;5327627;28;20028;-80
2023/07/01 00:06:56;;;;;;;5.23;2.27;;;;;;;18.18;50.70;100617.06;5326414;28;20031;-79
2023/07/01 00:09:27;;;;;;;6.28;2.00;;;;;;;18.13;50.60;100606.72;5325791;28;20034;-80
2023/07/01 00:11:58;;;;;;;5.50;2.50;;;;;;;18.11;51.21;100608.56;5325403;28;20466;-80
2023/07/01 00:14:30;;;;;;;8.47;2.30;;;;;;;18.11;52.12;100595.38;5325736;28;20028;-80
2023/07/01 00:17:02;;;;;;;7.30;2.13;;;;;;;18.10;51.65;100598.09;5325468;28;20032;-79
2023/07/01 00:19:33;;;;;;;6.07;2.50;;;;;;;18.07;52.16;100595.59;5325896;28;20032;-81
2023/07/01 00:22:06;;;;;;;10.30;3.23;;;;;;;18.14;53.02;100589.94;5325302;28;20035;-80
2023/07/01 00:24:37;;;;;;;6.35;2.72;;;;;;;18.06;52.69;100586.81;5325632;28;20074;-80
2023/07/01 00:27:09;;;;;;;8.70;2.83;;;;;;;18.01;53.07;100583.53;5325069;28;20069;-80
2023/07/01 00:29:42;;;;;;;5.37;2.40;;;;;;;18.05;51.87;100585.13;5324366;28;20471;-81
2023/07/01 00:32:13;;;;;;;7.90;3.08;;;;;;;18.08;53.19;100579.69;5325650;28;20035;-81
2023/07/01 00:34:45;;;;;;;5.23;2.27;;;;;;;18.06;52.74;100570.13;5325385;28;20104;-80
2023/07/01 00:37:17;;;;;;;7.50;3.03;;;;;;;18.05;53.08;100569.28;5325403;28;20118;-80
2023/07/01 00:39:48;;;;;;;5.20;2.53;;;;;;;18.07;52.71;100563.94;5325741;28;20119;-80
2023/07/01 00:42:19;;;;;;;10.97;2.97;;;;;;;17.99;53.82;100559.88;5325434;28;20108;-80
2023/07/01 00:44:51;;;;;;;6.13;2.80;;;;;;;18.00;54.23;100560.72;5325441;28;20041;-80
2023/07/01 00:47:22;;;;;;;4.37;2.53;;;;;;;17.91;53.96;100548.84;5325196;28;20395;-79
2023/07/01 00:49:55;;;;;;;4.50;2.47;;;;;;;17.95;53.92;100550.41;5324269;28;20548;-80
2023/07/01 00:52:26;;;;;;;5.07;2.40;;;;;;;17.94;55.16;100545.22;5325382;28;20059;-81
2023/07/01 00:54:59;;;;;;;6.90;3.00;;;;;;;17.94;54.46;100561.03;5325237;28;20096;-80
2023/07/01 00:57:32;;;;;;;5.10;2.40;;;;;;;17.89;55.04;100541.91;5324859;28;20035;-82
2023/07/01 01:00:10;;;;;;;9.10;2.72;;;;;;;17.91;55.82;100550.63;5325122;28;20110;-82
2023/07/01 01:02:58;;;;;;;7.70;2.63;;;;;;;17.85;56.46;100544.69;5324177;28;20394;-80
2023/07/01 01:05:38;;;;;;;10.55;3.03;;;;;;;17.79;57.10;100538.81;5325514;28;20124;-83
2023/07/01 01:08:20;;;;;;;6.93;2.60;;;;;;;17.74;57.21;100539.06;5325000;28;20055;-80
2023/07/01 01:10:54;;;;;;;6.75;2.55;;;;;;;17.73;57.44;100537.34;5325134;28;20024;-81
2023/07/01 01:13:28;;;;;;;7.55;2.55;;;;;;;17.72;57.56;100535.63;5325055;28;20032;-80
2023/07/01 01:16:00;;;;;;;7.82;2.63;;;;;;;17.76;57.77;100525.78;5324965;28;20027;-79
2023/07/01 01:18:33;;;;;;;7.15;2.28;;;;;;;17.71;57.85;100533.94;5324989;28;20023;-79
2023/07/01 01:21:05;;;;;;;5.47;2.38;;;;;;;17.65;57.95;100521.03;5325236;28;20043;-79
2023/07/01 01:23:43;;;;;;;;;;;;;;;17.72;57.79;100516.31;5325294;28;20119;-80
2023/07/01 01:26:26;;;;;;;6.13;2.50;;;;;;;17.71;58.85;100515.47;5322874;28;19920;-79
2023/07/01 01:28:57;;;;;;;;;;;;;;;17.71;58.63;100518.13;5325347;28;20074;-82
2023/07/01 01:31:29;;;;;;;6.60;2.90;;;;;;;17.65;60.83;100502.59;5324986;28;19951;-81
2023/07/01 01:34:01;;;;;;;9.77;3.28;;;;;;;17.68;61.33;100510.34;5326413;28;20527;-80
2023/07/01 01:36:43;;;;;;;10.50;3.50;;;;;;;17.65;61.85;100503.44;5328808;28;20111;-81
2023/07/01 01:39:21;;;;;;;6.88;2.95;;;;;;;17.56;63.78;100509.13;5328655;28;20118;-80
2023/07/01 01:42:07;;;;;;;5.32;2.60;;;;;;;17.45;64.90;100507.00;5328554;28;20024;-81
2023/07/01 01:44:48;;;;;;;6.05;3.50;;;;;;;17.38;65.79;100509.97;5328835;28;20108;-79
2023/07/01 01:47:23;;;;;;;7.55;2.78;;;;;;;17.34;66.59;100509.28;5328548;28;20080;-79
2023/07/01 01:49:58;;;;;;;9.23;3.42;;;;;;;17.31;67.09;100493.59;5327179;28;20062;-81
2023/07/01 01:52:32;;;;;;;7.72;3.08;;;;;;;17.33;66.64;100497.00;5328569;27;20107;-83
2023/07/01 01:55:05;;;;;;;5.75;2.80;;;;;;;17.31;67.10;100488.34;5328387;28;20023;-79
2023/07/01 01:57:37;;;;;;;6.30;2.53;;;;;;;17.28;67.50;100488.47;5328030;28;20123;-78
2023/07/01 02:00:09;;;;;;;6.30;2.78;;;;;;;17.26;67.63;100480.63;5328104;28;20110;-79
2023/07/01 02:02:40;;;;;;;6.05;3.03;;;;;;;17.26;67.76;100479.78;5328168;28;20076;-79
2023/07/01 02:05:11;;;;;;;7.83;2.77;;;;;;;17.25;68.03;100478.91;5326917;28;20039;-81
2023/07/01 02:07:43;;;;;;;7.10;2.47;;;;;;;17.24;67.84;100481.63;5328202;28;20390;-79
2023/07/01 02:10:14;;;;;;;4.70;2.43;;;;;;;17.24;68.45;100473.72;5327809;28;20514;-79
2023/07/01 02:12:46;;;;;;;7.67;2.70;;;;;;;17.26;68.37;100467.47;5327793;28;20030;-79
2023/07/01 02:15:17;;;;;;;6.53;2.67;;;;;;;17.24;68.75;100482.50;5326524;28;20031;-79
2023/07/01 02:17:49;;;;;;;7.40;3.10;;;;;;;17.22;69.03;100479.06;5327859;28;20470;-80
2023/07/01 02:20:20;;;;;;;7.53;3.47;;;;;;;17.20;69.55;100475.63;5327970;28;20111;-80
2023/07/01 02:22:51;;;;;;;5.90;2.70;;;;;;;17.17;70.22;100472.31;5327951;28;20494;-78
2023/07/01 02:25:23;;;;;;;9.13;3.57;;;;;;;17.05;70.41;100474.56;5325682;28;20055;-79
2023/07/01 02:27:55;;;;;;;5.57;2.78;;;;;;;17.10;70.61;100461.19;5327970;28;20050;-79
2023/07/01 02:30:26;;;;;;;8.07;3.33;;;;;;;16.99;71.16;100456.41;5328141;28;20118;-81
2023/07/01 02:32:57;;;;;;;6.83;2.70;;;;;;;16.97;72.23;100453.00;5328983;28;20020;-78
2023/07/01 02:35:29;;;;;;;6.80;3.00;;;;;;;16.90;75.53;100456.81;5330849;28;20038;-79
2023/07/01 02:38:00;;;;;;;7.07;2.80;;;;;;;16.75;78.95;100448.63;5330648;28;20099;-80
2023/07/01 02:40:32;;;;;;;5.50;3.20;;;;;;;16.59;81.64;100444.97;5331790;28;20484;-80
2023/07/01 02:43:03;;;;;;;9.67;2.73;;;;;;;16.54;83.29;100442.53;5331903;28;20042;-80
2023/07/01 02:45:34;;;;;;;5.93;2.53;;;;;;;16.40;85.10;100445.75;5335468;28;20509;-79
2023/07/01 02:48:06;;;;;;;6.13;2.40;;;;;;;16.35;85.93;100436.34;5327180;28;20100;-81
2023/07/01 02:50:37;;;;;;;10.20;2.70;;;;;;;16.19;88.20;100438.75;5327179;28;20134;-80
2023/07/01 02:53:08;;;;;;;9.03;2.97;;;;;;;16.15;89.01;100434.56;5327026;28;20031;-81
2023/07/01 02:55:40;;;;;;;5.70;2.37;;;;;;;16.23;89.15;100433.31;5325672;28;20100;-80
2023/07/01 02:58:11;;;;;;;8.67;3.00;;;;;;;16.13;90.15;100433.75;5327164;28;20027;-82
2023/07/01 03:00:43;;;;;;;7.23;3.47;;;;;;;16.02;91.11;100444.72;5327244;28;20032;-86
2023/07/01 03:03:14;;;;;;;8.93;3.07;;;;;;;16.02;91.74;100437.69;5325852;28;20074;-78
2023/07/01 03:05:45;;;;;;;5.20;2.40;;;;;;;15.97;92.42;100428.25;5326986;28;20046;-79
2023/07/01 03:08:17;;;;;;;5.20;2.63;;;;;;;15.98;93.18;100422.94;5326908;28;20107;-80
2023/07/01 03:10:48;;;;;;;5.87;2.70;;;;;;;16.00;92.92;100418.50;5327175;28;20028;-79
2023/07/01 03:13:20;;;;;;;4.93;3.03;;;;;;;16.01;93.21;100425.44;5326749;28;20031;-79
2023/07/01 03:15:51;;;;;;;6.00;3.50;;;;;;;15.98;94.48;100422.09;5326768;27;20031;-82
2023/07/01 03:18:23;;;;;;;4.87;2.50;;;;;;;15.98;94.44;100416.84;5326985;28;20035;-81
2023/07/01 03:21:00;;;;;;;6.60;2.50;;;;;;;15.91;95.81;100421.50;5326824;28;20451;-82
2023/07/01 03:23:31;;;;;;;5.88;2.83;;;;;;;15.78;97.21;100415.03;5325873;28;20514;-82
2023/07/01 03:26:03;;;;;;;5.20;2.90;;;;;;;15.83;97.77;100407.81;5326167;28;20134;-80
2023/07/01 03:28:34;;;;;;;7.30;3.07;;;;;;;15.80;97.72;100406.16;5327043;28;20036;-82
2023/07/01 03:31:06;;;;;;;4.73;2.57;;;;;;;15.77;97.30;100400.19;5326366;28;20070;-81
2023/07/01 03:33:37;;;;;;;5.67;2.27;;;;;;;15.82;97.24;100395.59;5326241;28;20077;-81
2023/07/01 03:36:09;;;;;;;6.63;3.30;;;;;;;15.78;97.68;100396.66;5326721;28;20050;-82
2023/07/01 03:38:41;;;;;;;3.00;2.30;;;;;;;15.78;98.06;100397.47;5339176;28;20028;-81
2023/07/01 03:41:12;;;;;;;4.33;2.80;;;;;;;15.73;98.83;100388.91;5339650;27;20115;-81
2023/07/01 03:43:43;;;;;;;4.03;2.50;;;;;;;15.66;99.95;100390.06;5328019;28;20034;-80
2023/07/01 03:46:16;;;;;;;4.77;3.23;;;;;;;15.49;100.00;100382.88;5326893;28;20035;-81
2023/07/01 03:48:48;;;;;;;5.97;3.10;;;;;;;15.28;100.00;100390.66;5326427;28;20034;-85
2023/07/01 03:51:19;;;;;;;4.97;3.00;;;;;;;15.26;100.00;100389.00;5326739;28;20019;-83
2023/07/01 03:53:51;;;;;;;6.93;2.93;;;;;;;15.24;100.00;100383.81;5326137;28;20040;-77
2023/07/01 03:56:23;;;;;;;7.88;3.20;;;;;;;15.10;100.00;100383.47;5325114;28;20359;-80
2023/07/01 03:58:54;;;;;;;8.60;3.87;;;;;;;15.00;100.00;100382.97;5325654;28;20036;-80
2023/07/01 04:01:27;;;;;;;5.03;3.30;;;;;;;14.87;100.00;100381.72;5325811;27;20032;-84
2023/07/01 04:03:58;;;;;;;7.00;3.28;;;;;;;14.90;100.00;100371.97;5328468;28;20028;-82
2023/07/01 04:06:29;;;;;;;4.53;3.43;;;;;;;14.87;100.00;100374.69;5329371;28;20035;-83
2023/07/01 04:09:01;;;;;;;8.23;3.57;;;;;;;14.83;100.00;100372.25;5338696;28;20454;-83
2023/07/01 04:11:32;;;;;;;4.90;3.90;;;;;;;14.77;100.00;100362.84;5329808;28;20039;-81
2023/07/01 04:14:03;;;;;;;5.83;3.67;;;;;;;14.90;100.00;100369.34;5328210;28;20032;-80
2023/07/01 04:16:35;;;;;;;5.13;3.77;;;;;;;14.74;100.00;100360.34;5328260;28;20036;-81
2023/07/01 04:19:08;;;;;;;5.00;3.63;;;;;;;14.82;100.00;100352.19;5328496;28;20031;-79
2023/07/01 04:21:39;;;;;;;5.82;4.10;;;;;;;14.75;100.00;100346.31;5328161;28;20031;-78
2023/07/01 04:24:10;;;;;;;6.30;3.87;;;;;;;14.70;100.00;100350.84;5338908;28;20028;-79
2023/07/01 04:26:43;;;;;;;7.20;4.07;;;;;;;14.82;100.00;100353.03;5342712;28;20055;-77
2023/07/01 04:29:15;;;;;;;5.38;3.53;;;;;;;14.74;100.00;100349.84;5339140;28;20036;-76
2023/07/01 04:31:46;;;;;;;5.27;3.57;;;;;;;14.76;100.00;100354.13;5342818;28;20053;-76
2023/07/01 04:34:18;;;;;;;5.80;3.60;;;;;;;14.63;100.00;100336.25;5346930;28;20088;-77
2023/07/01 04:36:49;;;;;;;4.33;3.20;;;;;;;14.74;100.00;100336.72;5346047;28;20042;-77
2023/07/01 04:39:23;;;;;;;5.37;3.67;;;;;;;14.74;100.00;100334.94;5345522;28;20031;-78
2023/07/01 04:41:54;;;;;;;4.28;3.67;;;;;;;14.67;100.00;100343.13;5344372;28;20355;-79
2023/07/01 04:44:26;;;;;;;5.60;3.90;;;;;;;14.75;100.00;100341.91;5340973;28;20038;-78
2023/07/01 04:46:58;;;;;;;6.70;3.77;;;;;;;14.69;100.00;100334.25;5343442;28;20027;-77
2023/07/01 04:49:29;;;;;;;4.05;3.20;;;;;;;14.75;100.00;100339.28;5346591;28;20057;-77
2023/07/01 04:52:00;;;;;;;4.43;3.63;;;;;;;14.65;100.00;100337.06;5344663;28;20034;-78
2023/07/01 04:54:32;;;;;;;4.37;3.77;;;;;;;14.67;100.00;100330.84;5346209;28;20039;-77
2023/07/01 04:57:03;;;;;;;6.03;3.33;;;;;;;14.70;100.00;100320.25;5344003;28;20039;-77
2023/07/01 04:59:35;;;;;;;6.37;3.97;;;;;;;14.75;100.00;100322.69;5342708;28;20061;-77
2023/07/01 05:02:06;;;;;;;4.20;3.40;;;;;;;14.69;100.00;100322.91;5341493;28;20032;-77
2023/07/01 05:04:38;;;;;;;6.67;3.70;;;;;;;14.72;100.00;100315.78;5339891;28;20118;-77
2023/07/01 05:07:09;;;;;;;5.07;4.00;;;;;;;14.77;100.00;100313.84;5337987;28;20028;-75
2023/07/01 05:09:41;;;;;;;5.23;3.63;;;;;;;14.83;100.00;100314.50;5338087;28;20049;-77
2023/07/01 05:12:13;;;;;;;5.93;3.77;;;;;;;14.88;100.00;100321.31;5336133;27;20035;-78
2023/07/01 05:14:44;;;;;;;6.20;4.47;;;;;;;14.94;100.00;100315.84;5335144;28;20115;-78
2023/07/01 05:17:16;;;;;;;4.40;3.60;;;;;;;15.02;100.00;100322.53;5336549;28;20047;-78
2023/07/01 05:19:47;;;;;;;5.80;3.50;;;;;;;14.99;100.00;100317.41;5331959;28;20118;-80
2023/07/01 05:22:18;;;;;;;5.80;3.53;;;;;;;14.96;100.00;100313.16;5332282;28;20031;-79
2023/07/01 05:24:50;;;;;;;4.50;3.07;;;;;;;14.99;100.00;100314.78;5330710;28;20074;-77
2023/07/01 05:27:21;;;;;;;5.37;3.40;;;;;;;15.00;100.00;100319.13;5332665;27;20059;-77
2023/07/01 05:29:53;;;;;;;5.97;3.53;;;;;;;15.05;100.00;100307.56;5328393;28;20027;-79
2023/07/01 05:32:24;;;;;;;4.50;3.07;;;;;;;15.09;100.00;100309.13;5329520;28;20024;-81
2023/07/01 05:34:56;;;;;;;5.73;2.83;;;;;;;15.02;100.00;100305.03;5329185;28;20067;-77
2023/07/01 05:37:27;;;;;;;4.70;3.77;;;;;;;15.07;100.00;100307.47;5328990;28;20126;-79
2023/07/01 05:39:58;;;;;;;6.40;3.53;;;;;;;15.06;100.00;100311.88;5329569;28;20092;-79
2023/07/01 05:42:30;;;;;;;6.93;3.77;;;;;;;15.08;100.00;100311.81;5328993;28;20031;-84
2023/07/01 05:45:01;;;;;;;6.00;3.20;;;;;;;15.10;100.00;100305.59;5328915;28;20050;-81
2023/07/01 05:47:32;;;;;;;4.57;3.27;;;;;;;15.08;100.00;100303.94;5328454;28;20051;-79
2023/07/01 05:50:04;;;;;;;7.47;3.30;;;;;;;15.11;100.00;100301.19;5328620;28;20038;-81
2023/07/01 05:52:36;;;;;;;6.10;3.20;;;;;;;15.19;100.00;100306.16;5328951;28;20118;-81
2023/07/01 05:55:07;;;;;;;6.77;3.80;;;;;;;15.25;100.00;100311.16;5327373;28;20172;-79
2023/07/01 05:57:39;;;;;;;6.10;3.53;;;;;;;15.28;100.00;100306.63;5328063;28;20105;-78
2023/07/01 06:00:13;;;;;;;7.03;3.10;;;;;;;15.32;100.00;100305.56;5328232;28;20346;-77
2023/07/01 06:02:44;;;;;;;4.78;3.35;;;;;;;15.34;100.00;100296.78;5328385;28;20032;-77
2023/07/01 06:05:16;;;;;;;5.27;3.17;;;;;;;15.41;100.00;100304.38;5328328;27;20032;-78
2023/07/01 06:07:49;;;;;;;4.47;3.20;;;;;;;15.45;100.00;100299.84;5327958;28;20038;-79
2023/07/01 06:10:20;;;;;;;4.68;3.05;;;;;;;15.48;100.00;100297.09;5328717;28;20484;-82
2023/07/01 06:12:52;;;;;;;4.53;2.83;;;;;;;15.56;100.00;100291.53;5328999;28;20028;-83
2023/07/01 06:15:23;;;;;;;4.03;2.70;;;;;;;15.67;100.00;100295.41;5328870;27;20031;-83
2023/07/01 06:17:55;;;;;;;4.03;2.97;;;;;;;15.82;100.00;100291.31;5328509;28;20046;-82
2023/07/01 06:20:27;;;;;;;3.38;2.60;;;;;;;15.77;100.00;100289.81;5328046;28;20359;-81
2023/07/01 06:22:58;;;;;;;4.03;2.63;;;;;;;15.76;100.00;100288.06;5328517;28;20031;-81
2023/07/01 06:25:29;;;;;;;4.23;2.80;;;;;;;15.79;100.00;100298.47;5327553;28;20079;-78
2023/07/01 06:28:01;;;;;;;4.97;2.87;;;;;;;15.78;100.00;100291.53;5326004;28;20389;-77
2023/07/01 06:30:32;;;;;;;4.23;2.57;;;;;;;15.81;100.00;100291.38;5327778;28;20032;-79
2023/07/01 06:33:05;;;;;;;4.10;2.87;;;;;;;15.94;100.00;100292.56;5326950;28;20027;-80
2023/07/01 06:35:41;;;;;;;4.07;2.35;;;;;;;15.89;100.00;100299.81;5327224;28;20051;-81
2023/07/01 06:38:12;;;;;;;2.72;2.33;;;;;;;15.89;100.00;100281.41;5326970;28;20047;-80
2023/07/01 06:40:45;;;;;;;3.17;2.87;;;;;;;15.99;100.00;100287.13;5327972;28;20028;-80
2023/07/01 06:43:16;;;;;;;2.67;2.05;;;;;;;15.95;100.00;100286.38;5325714;28;20032;-80
2023/07/01 06:45:48;;;;;;;3.47;2.17;;;;;;;15.97;100.00;100281.94;5327219;28;20043;-80
2023/07/01 06:48:19;;;;;;;4.27;2.40;;;;;;;15.95;100.00;100286.38;5326585;28;20450;-79
2023/07/01 06:50:50;;;;;;;3.10;2.53;;;;;;;15.90;100.00;100284.88;5327566;28;20434;-79
2023/07/01 06:53:22;;;;;;;3.70;2.50;;;;;;;15.84;100.00;100289.47;5326396;28;20030;-78
2023/07/01 06:55:54;;;;;;;2.88;2.05;;;;;;;15.93;100.00;100290.00;5326841;28;20036;-80
2023/07/01 06:58:25;;;;;;;4.40;2.33;;;;;;;15.90;100.00;100279.63;5326613;27;20036;-79
2023/07/01 07:00:57;;;;;;;3.10;2.03;;;;;;;15.98;100.00;100288.88;5325683;28;20063;-80
2023/07/01 07:03:28;;;;;;;4.17;2.13;;;;;;;15.96;100.00;100276.72;5326267;28;20517;-81
2023/07/01 07:06:00;;;;;;;4.07;2.13;;;;;;;15.89;100.00;100291.03;5324950;28;20045;-78
2023/07/01 07:08:32;;;;;;;5.13;2.35;;;;;;;15.95;100.00;100277.66;5326773;28;20051;-79
2023/07/01 07:11:04;;;;;;;3.67;2.40;;;;;;;15.98;100.00;100286.25;5327179;28;20555;-77
2023/07/01 07:13:35;;;;;;;2.42;2.22;;;;;;;15.92;100.00;100281.25;5326125;28;20030;-79
2023/07/01 07:16:06;;;;;;;4.77;2.30;;;;;;;16.02;100.00;100276.47;5326910;28;20435;-80
2023/07/01 07:18:38;;;;;;;3.07;2.20;;;;;;;16.09;100.00;100279.69;5326507;28;20478;-80
2023/07/01 07:21:09;;;;;;;3.73;2.23;;;;;;;15.96;100.00;100282.00;5327393;27;20485;-80
2023/07/01 07:23:40;;;;;;;3.40;2.20;;;;;;;16.07;100.00;100276.25;5328096;28;20059;-78
2023/07/01 07:26:13;;;;;;;2.40;2.20;;;;;;;16.13;100.00;100299.66;5326026;28;20054;-79
2023/07/01 07:28:45;;;;;;;2.95;2.30;;;;;;;16.09;100.00;100284.94;5326740;27;20378;-80
2023/07/01 07:31:17;;;;;;;;;;;;;;;16.12;100.00;100275.13;5326641;28;20101;-80
2023/07/01 07:33:48;;;;;;;3.15;2.45;;;;;;;16.09;100.00;100275.28;5327008;28;19919;-82
2023/07/01 07:36:20;;;;;;;3.00;2.20;;;;;;;16.14;100.00;100269.81;5326841;28;20111;-81
2023/07/01 07:38:51;;;;;;;3.03;2.43;;;;;;;16.13;100.00;100268.97;5325622;28;20084;-78
2023/07/01 07:41:24;;;;;;;2.87;2.50;;;;;;;16.17;100.00;100273.16;5326378;28;20116;-79
2023/07/01 07:43:55;;;;;;;4.57;2.03;;;;;;;16.22;100.00;100257.19;5326458;28;20440;-78
2023/07/01 07:46:26;;;;;;;5.07;2.43;;;;;;;16.31;100.00;100272.56;5326350;28;20036;-78
2023/07/01 07:48:58;;;;;;;4.90;2.53;;;;;;;16.30;100.00;100267.34;5325888;28;20055;-80
2023/07/01 07:51:29;;;;;;;4.20;2.60;;;;;;;16.41;100.00;100265.09;5326787;28;20452;-81
2023/07/01 07:54:01;;;;;;;6.20;2.87;;;;;;;16.50;100.00;100269.06;5326734;28;20459;-77
2023/07/01 07:56:32;;;;;;;4.97;3.03;;;;;;;16.49;100.00;100264.75;5325612;28;20479;-78
2023/07/01 07:59:04;;;;;;;2.20;1.97;;;;;;;16.56;100.00;100263.53;5325886;28;20062;-78
2023/07/01 08:01:36;;;;;;;5.45;2.88;;;;;;;16.70;100.00;100261.13;5325781;28;20051;-79
2023/07/01 08:04:07;;;;;;;4.50;2.53;;;;;;;16.80;100.00;100258.06;5326462;28;20078;-78
2023/07/01 08:06:38;;;;;;;2.53;2.20;;;;;;;16.81;100.00;100252.72;5326431;28;20032;-79
2023/07/01 08:09:10;;;;;;;1.90;1.80;;;;;;;16.72;100.00;100253.16;5325042;28;20036;-84
2023/07/01 08:11:41;;;;;;;3.10;1.80;;;;;;;16.62;100.00;100255.38;5327431;28;20027;-83
2023/07/01 08:14:13;;;;;;;3.37;2.20;;;;;;;16.68;100.00;100241.03;5326538;28;20028;-80
2023/07/01 08:16:44;;;;;;;2.77;2.03;;;;;;;16.70;100.00;100250.59;5326502;28;20497;-82
2023/07/01 08:19:15;;;;;;;2.50;1.83;;;;;;;16.66;100.00;100253.44;5326234;28;20034;-81
2023/07/01 08:21:47;;;;;;;2.40;1.57;;;;;;;16.57;100.00;100252.94;5326245;28;20042;-80
2023/07/01 08:24:19;;;;;;;2.22;1.90;;;;;;;16.80;100.00;100247.53;5326777;28;20382;-78
2023/07/01 08:26:50;;;;;;;2.27;2.00;;;;;;;16.88;100.00;100250.69;5336581;28;20046;-80
2023/07/01 08:29:22;;;;;;;2.13;1.60;;;;;;;17.03;100.00;100252.56;5328949;28;20027;-78
2023/07/01 08:31:53;;;;;;;1.83;1.70;;;;;;;16.74;100.00;100253.94;5326107;28;20027;-79
2023/07/01 08:34:24;;;;;;;2.00;1.90;;;;;;;16.50;100.00;100248.03;5325667;28;20032;-81
2023/07/01 08:36:56;;;;;;;2.17;1.90;;;;;;;16.45;100.00;100247.38;5327604;28;20035;-80
2023/07/01 08:39:27;;;;;;;2.77;1.90;;;;;;;16.46;100.00;100252.59;5326320;28;20020;-79
2023/07/01 08:42:04;;;;;;;1.67;1.50;;;;;;;16.40;100.00;100252.84;5327066;28;20028;-78
2023/07/01 08:44:39;;;;;;;2.17;1.98;;;;;;;16.37;100.00;100253.88;5328400;28;20057;-78
2023/07/01 08:47:12;;;;;;;3.78;1.50;;;;;;;16.43;100.00;100247.47;5329840;28;20030;-78
2023/07/01 08:49:50;;;;;;;1.73;1.60;;;;;;;16.42;100.00;100251.00;5329213;28;20450;-77
2023/07/01 08:52:25;;;;;;;1.95;1.73;;;;;;;16.59;100.00;100237.94;5329390;28;20024;-78
2023/07/01 08:54:57;;;;;;;2.25;1.42;;;;;;;16.61;100.00;100250.16;5328851;28;20028;-78
2023/07/01 08:57:28;;;;;;;2.00;1.30;;;;;;;16.58;100.00;100241.50;5329109;28;20043;-79
2023/07/01 09:00:00;;;;;;;1.63;1.53;;;;;;;16.78;100.00;100240.56;5329512;28;20373;-80
2023/07/01 09:02:32;;;;;;;1.83;1.40;;;;;;;16.76;100.00;100246.84;5329516;28;20525;-80
2023/07/01 09:05:04;;;;;;;1.50;1.40;;;;;;;16.71;100.00;100235.66;5328474;28;20281;-77
2023/07/01 09:07:35;;;;;;;1.60;1.50;;;;;;;16.87;100.00;100236.69;5329383;28;20042;-79
2023/07/01 09:10:07;;;;;;;2.37;1.70;;;;;;;16.89;100.00;100245.34;5328377;28;20261;-78
2023/07/01 09:12:38;;;;;;;2.25;1.50;;;;;;;16.88;100.00;100237.53;5328796;28;20032;-78
2023/07/01 09:15:10;;;;;;;2.13;1.40;;;;;;;16.75;100.00;100245.13;5326428;28;20114;-78
2023/07/01 09:17:42;;;;;;;1.40;1.30;;;;;;;16.90;100.00;100247.03;5328348;28;20027;-79
2023/07/01 09:20:13;;;;;;;;;;;;;;;16.82;100.00;100243.88;5327772;27;20031;-76
2023/07/01 09:22:45;;;;;;;1.20;1.20;;;;;;;16.85;100.00;100242.91;5328130;28;20327;-78
2023/07/01 09:25:27;;;;;;;1.00;1.00;;;;;;;16.91;100.00;100240.84;5327347;28;20055;-76
2023/07/01 09:27:58;;;;;;;1.10;1.10;;;;;;;17.20;100.00;100238.59;5327274;28;20070;-77
2023/07/01 09:30:30;;;;;;;1.10;1.10;;;;;;;17.48;100.00;100242.47;5329276;28;20051;-78
2023/07/01 09:33:12;;;;;;;2.20;1.50;;;;;;;17.57;100.00;100238.56;5326790;28;20043;-79
2023/07/01 09:35:45;;;;;;;1.20;1.00;;;;;;;17.69;100.00;100237.91;5328007;28;20116;-78
2023/07/01 09:38:16;;;;;;;4.13;1.15;;;;;;;17.72;100.00;100235.13;5325715;28;20046;-78
2023/07/01 09:40:48;;;;;;;1.47;1.20;;;;;;;17.83;100.00;100230.13;5328355;28;20028;-79
2023/07/01 09:43:19;;;;;;;2.13;1.20;;;;;;;17.91;100.00;100229.78;5327431;28;20036;-78
2023/07/01 09:45:55;;;;;;;1.27;1.13;;;;;;;17.92;100.00;100234.13;5329555;28;20400;-80
2023/07/01 09:48:26;;;;;;;1.20;1.10;;;;;;;17.78;100.00;100223.41;5328225;28;20496;-83
2023/07/01 09:51:02;;;;;;;1.30;1.20;;;;;;;17.83;100.00;100222.22;5318669;27;20035;-81
2023/07/01 09:53:36;;;;;;;1.30;1.20;;;;;;;17.83;100.00;100227.50;5315693;27;20115;-79
2023/07/01 09:56:08;;;;;;;2.80;1.52;;;;;;;17.71;100.00;100220.25;5321407;28;20031;-83
2023/07/01 09:58:40;;;;;;;1.63;1.52;;;;;;;17.77;100.00;100225.19;5329304;27;20031;-80
2023/07/01 10:01:13;;;;;;;1.33;1.20;;;;;;;17.71;100.00;100222.00;5338550;27;20340;-80
2023/07/01 10:03:45;;;;;;;1.70;1.40;;;;;;;17.72;100.00;100232.47;5335183;27;20031;-82
2023/07/01 10:06:16;;;;;;;1.65;1.55;;;;;;;17.68;100.00;100226.50;5329966;27;20049;-80
2023/07/01 10:08:48;;;;;;;2.73;1.80;;;;;;;17.53;100.00;100229.09;5340528;27;20023;-84
2023/07/01 10:11:22;;;;;;;4.50;1.80;;;;;;;17.63;100.00;100231.19;5335646;28;20055;-79
2023/07/01 10:13:56;;;;;;;1.60;1.50;;;;;;;17.58;100.00;100227.06;5329889;28;20093;-78
2023/07/01 10:16:28;;;;;;;2.10;1.77;;;;;;;17.70;100.00;100215.91;5329538;28;20060;-77
2023/07/01 10:19:00;;;;;;;1.77;1.67;;;;;;;17.77;100.00;100219.91;5328568;28;20123;-79
2023/07/01 10:21:32;;;;;;;3.67;1.92;;;;;;;17.93;100.00;100205.97;5328166;28;20079;-77
2023/07/01 10:24:03;;;;;;;2.13;1.63;;;;;;;18.00;100.00;100217.88;5327010;28;20063;-78
2023/07/01 10:26:37;;;;;;;1.73;1.63;;;;;;;17.92;100.00;100215.66;5326930;27;20051;-79
2023/07/01 10:29:27;;;;;;;1.80;1.70;;;;;;;17.78;100.00;100216.34;5326500;28;20051;-81
2023/07/01 10:32:11;;;;;;;2.30;2.10;;;;;;;17.80;100.00;100221.53;5334223;28;20156;-82
2023/07/01 10:35:03;;;;;;;2.88;1.90;;;;;;;17.86;100.00;100203.63;5328070;28;20027;-81
2023/07/01 10:37:35;;;;;;;2.13;1.92;;;;;;;18.14;100.00;100212.72;5328561;28;20023;-80
2023/07/01 10:40:28;;;;;;;2.30;2.10;;;;;;;18.47;100.00;100203.09;5328125;28;20059;-81
2023/07/01 10:43:18;;;;;;;2.22;2.00;;;;;;;18.86;100.00;100210.59;5326400;28;20381;-79
2023/07/01 10:46:04;;;;;;;2.47;2.22;;;;;;;19.01;100.00;100216.78;5328668;28;20043;-77
2023/07/01 10:48:42;;;;;;;2.78;2.50;;;;;;;19.00;100.00;100217.75;5327790;28;20084;-79
2023/07/01 10:51:13;;;;;;;2.92;2.47;;;;;;;19.32;100.00;100215.03;5332014;28;20087;-78
2023/07/01 10:54:07;;;;;;;2.90;2.30;;;;;;;19.41;100.00;100213.63;5326958;28;20126;-76
2023/07/01 10:57:00;;;;;;;4.13;2.50;;;;;;;19.48;100.00;100214.97;5325848;28;20035;-77
2023/07/01 10:59:31;;;;;;;7.10;2.70;;;;;;;19.66;100.00;100218.31;5325590;28;20035;-77
2023/07/01 11:02:03;;;;;;;2.50;2.30;;;;;;;19.84;100.00;100221.69;5326194;28;20084;-77
2023/07/01 11:04:53;;;;;;;6.03;2.50;;;;;;;20.03;100.00;100222.25;5325544;28;20079;-80
2023/07/01 11:07:26;;;;;;;5.63;2.80;;;;;;;20.39;100.00;100220.91;5326210;28;20028;-80
2023/07/01 11:10:00;;;;;;;3.38;2.42;;;;;;;20.81;100.00;100212.16;5326088;28;20508;-81
2023/07/01 11:12:32;;;;;;;2.60;2.40;;;;;;;20.92;95.73;100209.66;5326844;28;20019;-80
2023/07/01 11:15:04;;;;;;;2.80;2.60;;;;;;;20.53;95.59;100204.16;5326437;28;20034;-83
2023/07/01 11:17:51;;;;;;;2.47;2.22;;;;;;;20.68;97.16;100209.47;5325989;28;20393;-79
2023/07/01 11:20:22;;;;;;;5.43;2.67;;;;;;;20.99;93.47;100203.00;5326112;28;20027;-80
2023/07/01 11:22:54;;;;;;;2.70;2.50;;;;;;;21.59;90.49;100212.31;5325345;28;20035;-80
2023/07/01 11:25:25;;;;;;;3.22;2.78;;;;;;;21.36;89.10;100207.66;5326428;28;20050;-90
2023/07/01 11:27:56;;;;;;;3.77;3.00;;;;;;;21.10;91.66;100202.31;5326223;28;20143;-77
2023/07/01 11:30:30;;;;;;;3.37;2.90;;;;;;;20.85;91.96;100197.75;5325623;28;20023;-81
2023/07/01 11:33:12;;;;;;;3.13;2.80;;;;;;;20.88;93.88;100198.44;5310853;28;20204;-81
2023/07/01 11:35:51;;;;;;;3.17;2.40;;;;;;;21.21;91.45;100197.13;5305347;28;20060;-82
2023/07/01 11:38:26;;;;;;;2.92;2.20;;;;;;;21.25;89.01;100205.72;5303873;28;20114;-81
2023/07/01 11:40:57;;;;;;;2.70;2.50;;;;;;;21.08;87.38;100212.16;5305604;28;20045;-88
2023/07/01 11:43:29;;;;;;;2.83;1.90;;;;;;;21.43;88.57;100199.22;5303979;28;20161;-83
2023/07/01 11:46:00;;;;;;;2.97;1.80;;;;;;;21.23;88.17;100202.34;5304934;28;20036;-85
2023/07/01 11:48:32;;;;;;;3.43;2.00;;;;;;;21.26;88.89;100208.28;5304675;28;20290;-81